createdAt,value
2017-04-24T00:00:16.907Z,6.90
2017-04-24T00:01:16.651Z,6.80
2017-04-24T00:02:15.205Z,6.70
2017-04-24T00:03:15.487Z,6.70
2017-04-24T00:04:14.261Z,6.70
2017-04-24T00:05:14.967Z,6.80
2017-04-24T00:06:13.441Z,6.80
2017-04-24T00:07:11.700Z,6.70
2017-04-24T00:08:11.073Z,6.70
2017-04-24T00:09:09.383Z,6.70
2017-04-24T00:10:07.782Z,6.70
2017-04-24T00:11:06.059Z,6.70
2017-04-24T00:12:05.618Z,6.70
2017-04-24T00:13:04.558Z,6.70
2017-04-24T00:14:03.473Z,6.70
2017-04-24T00:15:14.061Z,6.70
2017-04-24T00:16:13.179Z,6.70
2017-04-24T00:17:11.679Z,6.70
2017-04-24T00:18:10.006Z,6.70
2017-04-24T00:19:08.301Z,6.70
2017-04-24T00:20:06.588Z,6.80
2017-04-24T00:21:05.147Z,6.80
2017-04-24T00:22:03.686Z,6.80
2017-04-24T00:23:01.931Z,6.70
2017-04-24T00:24:02.537Z,6.80
2017-04-24T00:25:01.167Z,6.70
2017-04-24T00:25:59.515Z,6.70
2017-04-24T00:26:57.779Z,6.60
2017-04-24T00:27:56.052Z,6.60
2017-04-24T00:28:55.820Z,6.60
2017-04-24T00:29:54.369Z,6.60
2017-04-24T00:30:53.041Z,6.50
2017-04-24T00:31:52.135Z,6.50
2017-04-24T00:32:50.449Z,6.50
2017-04-24T00:33:48.681Z,6.50
2017-04-24T00:34:46.894Z,6.60
2017-04-24T00:35:45.162Z,6.60
2017-04-24T00:36:43.441Z,6.60
2017-04-24T00:37:41.794Z,6.60
2017-04-24T00:38:40.028Z,6.50
2017-04-24T00:39:38.281Z,6.50
2017-04-24T00:40:36.513Z,6.40
2017-04-24T00:41:34.783Z,6.30
2017-04-24T00:42:33.120Z,6.20
2017-04-24T00:43:31.865Z,6.20
2017-04-24T00:44:30.181Z,6.20
2017-04-24T00:45:28.512Z,6.20
2017-04-24T00:46:26.735Z,6.10
2017-04-24T00:47:25.029Z,6.10
2017-04-24T00:48:23.321Z,6.30
2017-04-24T00:49:21.594Z,6.10
2017-04-24T00:50:19.891Z,6.00
2017-04-24T00:51:18.183Z,6.00
2017-04-24T00:52:16.443Z,5.90
2017-04-24T00:53:14.707Z,5.90
2017-04-24T00:54:13.000Z,5.90
2017-04-24T00:55:11.251Z,5.90
2017-04-24T00:56:09.562Z,5.80
2017-04-24T00:57:07.822Z,5.90
2017-04-24T00:58:06.086Z,5.90
2017-04-24T00:59:04.446Z,5.90
2017-04-24T01:00:02.742Z,5.90
2017-04-24T01:01:01.031Z,5.90
2017-04-24T01:01:59.319Z,5.90
2017-04-24T01:02:57.591Z,5.90
2017-04-24T01:03:55.976Z,5.90
2017-04-24T01:04:54.305Z,5.90
2017-04-24T01:05:52.554Z,6.00
2017-04-24T01:06:50.795Z,6.00
2017-04-24T01:07:49.076Z,6.00
2017-04-24T01:08:47.369Z,6.00
2017-04-24T01:09:45.659Z,6.00
2017-04-24T01:10:43.864Z,6.10
2017-04-24T01:11:42.134Z,6.20
2017-04-24T01:12:40.569Z,6.30
2017-04-24T01:13:38.899Z,6.30
2017-04-24T01:14:37.183Z,6.30
2017-04-24T01:15:35.478Z,6.30
2017-04-24T01:16:33.713Z,6.30
2017-04-24T01:17:32.005Z,6.40
2017-04-24T01:18:30.274Z,6.40
2017-04-24T01:19:28.540Z,6.30
2017-04-24T01:20:26.750Z,6.30
2017-04-24T01:21:25.003Z,6.30
2017-04-24T01:22:23.280Z,6.20
2017-04-24T01:23:21.544Z,6.20
2017-04-24T01:24:19.779Z,6.10
2017-04-24T01:25:18.031Z,6.00
2017-04-24T01:26:16.323Z,6.00
2017-04-24T01:27:14.583Z,5.90
2017-04-24T01:28:12.804Z,5.90
2017-04-24T01:29:11.073Z,5.90
2017-04-24T01:30:09.366Z,6.00
2017-04-24T01:31:07.688Z,6.00
2017-04-24T01:32:05.941Z,6.00
2017-04-24T01:33:04.203Z,6.10
2017-04-24T01:34:02.446Z,6.10
2017-04-24T01:35:00.702Z,6.10
2017-04-24T01:35:58.963Z,6.10
2017-04-24T01:36:57.237Z,6.10
2017-04-24T01:37:55.455Z,6.10
2017-04-24T01:38:53.794Z,6.10
2017-04-24T01:39:52.055Z,6.10
2017-04-24T01:40:50.351Z,6.10
2017-04-24T01:41:48.581Z,6.10
2017-04-24T01:42:46.824Z,6.10
2017-04-24T01:43:45.080Z,6.10
2017-04-24T01:44:43.299Z,6.00
2017-04-24T01:45:41.573Z,6.00
2017-04-24T01:46:39.871Z,6.00
2017-04-24T01:47:38.191Z,5.90
2017-04-24T01:48:36.427Z,5.90
2017-04-24T01:49:34.647Z,5.90
2017-04-24T01:50:32.893Z,5.90
2017-04-24T01:51:31.121Z,5.90
2017-04-24T01:52:29.344Z,5.90
2017-04-24T01:53:27.565Z,5.90
2017-04-24T01:54:25.852Z,5.80
2017-04-24T01:55:24.079Z,5.80
2017-04-24T01:56:22.315Z,5.70
2017-04-24T01:57:20.543Z,5.60
2017-04-24T01:58:18.781Z,5.60
2017-04-24T01:59:17.019Z,5.60
2017-04-24T02:00:15.326Z,5.60
2017-04-24T02:01:13.572Z,5.60
2017-04-24T02:02:11.874Z,5.60
2017-04-24T02:03:10.259Z,5.50
2017-04-24T02:04:08.573Z,5.50
2017-04-24T02:05:06.833Z,5.60
2017-04-24T02:06:05.104Z,5.50
2017-04-24T02:07:03.340Z,5.60
2017-04-24T02:08:01.798Z,5.60
2017-04-24T02:09:00.102Z,5.60
2017-04-24T02:09:58.348Z,5.70
2017-04-24T02:10:56.659Z,5.60
2017-04-24T02:11:55.026Z,5.60
2017-04-24T02:12:53.332Z,5.50
2017-04-24T02:13:51.610Z,5.50
2017-04-24T02:14:49.929Z,5.50
2017-04-24T02:15:48.499Z,5.60
2017-04-24T02:16:46.746Z,5.60
2017-04-24T02:17:44.991Z,5.50
2017-04-24T02:18:43.287Z,5.50
2017-04-24T02:19:41.564Z,5.50
2017-04-24T02:20:39.779Z,5.50
2017-04-24T02:21:38.126Z,5.40
2017-04-24T02:22:36.395Z,5.40
2017-04-24T02:23:34.643Z,5.40
2017-04-24T02:24:32.885Z,5.40
2017-04-24T02:25:31.159Z,5.40
2017-04-24T02:26:29.472Z,5.50
2017-04-24T02:27:27.777Z,5.50
2017-04-24T02:28:26.064Z,5.50
2017-04-24T02:29:24.326Z,5.60
2017-04-24T02:30:22.613Z,5.50
2017-04-24T02:31:20.830Z,5.40
2017-04-24T02:32:19.095Z,5.40
2017-04-24T02:33:17.415Z,5.40
2017-04-24T02:34:15.623Z,5.30
2017-04-24T02:35:13.843Z,5.30
2017-04-24T02:36:12.095Z,5.30
2017-04-24T02:37:10.327Z,5.40
2017-04-24T02:38:08.603Z,5.40
2017-04-24T02:39:06.902Z,5.40
2017-04-24T02:40:05.098Z,5.40
2017-04-24T02:41:03.363Z,5.50
2017-04-24T02:42:01.602Z,5.50
2017-04-24T02:42:59.823Z,5.50
2017-04-24T02:43:58.192Z,5.50
2017-04-24T02:44:56.641Z,5.60
2017-04-24T02:45:54.870Z,5.60
2017-04-24T02:46:53.162Z,5.50
2017-04-24T02:47:51.408Z,5.40
2017-04-24T02:48:49.627Z,5.40
2017-04-24T02:49:47.891Z,5.40
2017-04-24T02:50:46.160Z,5.40
2017-04-24T02:51:44.461Z,5.30
2017-04-24T02:52:42.738Z,5.30
2017-04-24T02:53:40.959Z,5.30
2017-04-24T02:54:39.242Z,5.30
2017-04-24T02:55:37.430Z,5.40
2017-04-24T02:56:35.847Z,5.40
2017-04-24T02:57:34.125Z,5.40
2017-04-24T02:58:32.401Z,5.40
2017-04-24T02:59:30.790Z,5.60
2017-04-24T03:00:29.034Z,5.30
2017-04-24T03:01:27.337Z,5.40
2017-04-24T03:02:25.570Z,5.30
2017-04-24T03:03:23.802Z,5.40
2017-04-24T03:04:22.019Z,5.40
2017-04-24T03:05:20.300Z,5.40
2017-04-24T03:06:18.510Z,5.30
2017-04-24T03:07:16.788Z,5.30
2017-04-24T03:08:15.036Z,5.30
2017-04-24T03:09:13.301Z,5.40
2017-04-24T03:10:11.541Z,5.40
2017-04-24T03:11:09.870Z,5.40
2017-04-24T03:12:08.045Z,5.30
2017-04-24T03:13:06.271Z,5.20
2017-04-24T03:14:04.490Z,5.20
2017-04-24T03:15:02.720Z,5.20
2017-04-24T03:16:00.947Z,5.20
2017-04-24T03:16:59.262Z,5.20
2017-04-24T03:17:57.515Z,5.20
2017-04-24T03:18:55.777Z,5.20
2017-04-24T03:19:54.022Z,5.20
2017-04-24T03:20:52.216Z,5.20
2017-04-24T03:21:50.508Z,5.30
2017-04-24T03:22:48.759Z,5.30
2017-04-24T03:23:47.012Z,5.30
2017-04-24T03:24:45.239Z,5.30
2017-04-24T03:25:43.498Z,5.30
2017-04-24T03:26:41.694Z,5.30
2017-04-24T03:27:39.930Z,5.20
2017-04-24T03:28:38.169Z,5.20
2017-04-24T03:29:36.371Z,5.20
2017-04-24T03:30:34.610Z,5.20
2017-04-24T03:31:32.856Z,5.20
2017-04-24T03:32:31.102Z,5.20
2017-04-24T03:33:29.388Z,5.20
2017-04-24T03:34:27.637Z,5.20
2017-04-24T03:35:25.931Z,5.10
2017-04-24T03:36:24.122Z,5.20
2017-04-24T03:37:22.382Z,5.20
2017-04-24T03:38:20.615Z,5.20
2017-04-24T03:39:18.823Z,5.20
2017-04-24T03:40:17.060Z,5.20
2017-04-24T03:41:15.308Z,5.20
2017-04-24T03:42:13.531Z,5.20
2017-04-24T03:43:11.783Z,5.20
2017-04-24T03:44:09.995Z,5.40
2017-04-24T03:45:08.288Z,5.60
2017-04-24T03:46:06.587Z,5.80
2017-04-24T03:47:04.814Z,5.90
2017-04-24T03:48:03.055Z,6.10
2017-04-24T03:49:01.271Z,6.10
2017-04-24T03:49:59.455Z,6.20
2017-04-24T03:50:57.757Z,6.30
2017-04-24T03:51:55.970Z,6.30
2017-04-24T03:52:54.272Z,6.20
2017-04-24T03:53:52.561Z,6.10
2017-04-24T03:54:50.750Z,6.00
2017-04-24T03:55:48.999Z,5.90
2017-04-24T03:56:47.286Z,5.80
2017-04-24T03:57:45.495Z,5.70
2017-04-24T03:58:43.735Z,5.70
2017-04-24T03:59:42.012Z,5.60
2017-04-24T04:00:40.322Z,5.50
2017-04-24T04:01:38.600Z,5.50
2017-04-24T04:02:36.895Z,5.40
2017-04-24T04:03:35.142Z,5.40
2017-04-24T04:04:33.360Z,5.40
2017-04-24T04:05:31.703Z,5.30
2017-04-24T04:06:29.905Z,5.30
2017-04-24T04:07:28.165Z,5.30
2017-04-24T04:08:26.487Z,5.30
2017-04-24T04:09:24.716Z,5.30
2017-04-24T04:10:23.079Z,5.10
2017-04-24T04:11:21.362Z,5.20
2017-04-24T04:12:20.292Z,5.20
2017-04-24T04:13:18.571Z,5.10
2017-04-24T04:14:16.797Z,5.10
2017-04-24T04:15:15.039Z,5.00
2017-04-24T04:16:13.330Z,5.00
2017-04-24T04:17:12.050Z,4.90
2017-04-24T04:18:10.302Z,4.90
2017-04-24T04:19:08.580Z,5.00
2017-04-24T04:20:06.862Z,5.10
2017-04-24T04:21:05.183Z,5.00
2017-04-24T04:22:03.482Z,5.10
2017-04-24T04:23:01.883Z,5.20
2017-04-24T04:24:00.159Z,5.20
2017-04-24T04:24:58.371Z,5.20
2017-04-24T04:25:56.627Z,5.10
2017-04-24T04:26:54.932Z,5.10
2017-04-24T04:27:53.197Z,5.00
2017-04-24T04:28:51.490Z,5.00
2017-04-24T04:29:49.700Z,4.90
2017-04-24T04:30:47.920Z,4.90
2017-04-24T04:31:46.105Z,4.90
2017-04-24T04:32:44.295Z,4.90
2017-04-24T04:33:42.559Z,4.80
2017-04-24T04:34:40.856Z,4.80
2017-04-24T04:35:39.071Z,4.80
2017-04-24T04:36:37.324Z,4.70
2017-04-24T04:37:35.499Z,4.70
2017-04-24T04:38:33.753Z,4.70
2017-04-24T04:39:31.977Z,4.70
2017-04-24T04:40:30.302Z,4.70
2017-04-24T04:41:28.864Z,4.60
2017-04-24T04:42:27.163Z,4.70
2017-04-24T04:43:25.401Z,4.80
2017-04-24T04:44:23.642Z,4.90
2017-04-24T04:45:21.960Z,4.70
2017-04-24T04:46:20.270Z,4.70
2017-04-24T04:47:18.556Z,4.70
2017-04-24T04:48:17.366Z,4.80
2017-04-24T04:49:15.612Z,4.80
2017-04-24T04:50:13.862Z,4.80
2017-04-24T04:51:12.113Z,4.70
2017-04-24T04:52:10.359Z,4.80
2017-04-24T04:53:08.629Z,4.80
2017-04-24T04:54:06.907Z,4.80
2017-04-24T04:55:05.926Z,4.90
2017-04-24T04:56:04.136Z,4.90
2017-04-24T04:57:02.411Z,5.00
2017-04-24T04:58:00.667Z,5.00
2017-04-24T04:58:58.926Z,5.00
2017-04-24T04:59:57.277Z,5.00
2017-04-24T05:00:55.507Z,5.00
2017-04-24T05:01:53.719Z,5.00
2017-04-24T05:02:52.007Z,5.00
2017-04-24T05:03:50.212Z,5.10
2017-04-24T05:04:48.480Z,5.20
2017-04-24T05:05:46.737Z,5.20
2017-04-24T05:06:44.962Z,5.30
2017-04-24T05:07:43.225Z,5.30
2017-04-24T05:08:41.483Z,5.40
2017-04-24T05:09:39.754Z,5.50
2017-04-24T05:10:38.005Z,5.50
2017-04-24T05:11:36.218Z,5.60
2017-04-24T05:12:34.503Z,5.70
2017-04-24T05:13:32.739Z,5.70
2017-04-24T05:14:31.925Z,5.70
2017-04-24T05:15:30.242Z,5.80
2017-04-24T05:16:28.498Z,5.80
2017-04-24T05:17:27.371Z,5.80
2017-04-24T05:18:25.632Z,5.90
2017-04-24T05:19:24.630Z,6.00
2017-04-24T05:20:22.847Z,6.00
2017-04-24T05:21:21.150Z,6.00
2017-04-24T05:22:19.437Z,6.00
2017-04-24T05:23:17.922Z,6.10
2017-04-24T05:24:16.686Z,6.00
2017-04-24T05:25:14.937Z,6.10
2017-04-24T05:26:13.215Z,6.20
2017-04-24T05:27:11.430Z,6.20
2017-04-24T05:28:09.635Z,6.30
2017-04-24T05:29:08.169Z,6.30
2017-04-24T05:30:06.426Z,6.40
2017-04-24T05:31:04.687Z,6.40
2017-04-24T05:32:02.995Z,6.30
2017-04-24T05:33:01.248Z,6.30
2017-04-24T05:33:59.521Z,6.50
2017-04-24T05:34:58.691Z,6.60
2017-04-24T05:35:57.016Z,6.70
2017-04-24T05:36:55.355Z,6.80
2017-04-24T05:37:53.578Z,6.80
2017-04-24T05:38:51.874Z,6.90
2017-04-24T05:39:50.085Z,6.90
2017-04-24T05:40:48.409Z,7.00
2017-04-24T05:41:46.652Z,7.00
2017-04-24T05:42:44.865Z,7.00
2017-04-24T05:43:43.075Z,7.10
2017-04-24T05:44:41.481Z,7.20
2017-04-24T05:45:39.792Z,7.10
2017-04-24T05:46:38.089Z,7.20
2017-04-24T05:47:36.382Z,7.30
2017-04-24T05:48:34.618Z,7.30
2017-04-24T05:49:32.907Z,7.30
2017-04-24T05:50:31.172Z,7.40
2017-04-24T05:51:29.418Z,7.50
2017-04-24T05:52:27.692Z,7.50
2017-04-24T05:53:25.958Z,7.60
2017-04-24T05:54:24.220Z,7.60
2017-04-24T05:55:22.512Z,7.60
2017-04-24T05:56:20.758Z,7.70
2017-04-24T05:57:19.028Z,7.80
2017-04-24T05:58:17.611Z,8.00
2017-04-24T05:59:15.863Z,8.10
2017-04-24T06:00:14.140Z,8.20
2017-04-24T06:01:12.472Z,8.20
2017-04-24T06:02:10.727Z,8.20
2017-04-24T06:03:09.029Z,8.20
2017-04-24T06:04:07.301Z,8.30
2017-04-24T06:05:05.570Z,8.40
2017-04-24T06:06:03.815Z,8.50
2017-04-24T06:07:02.074Z,8.40
2017-04-24T06:08:00.349Z,8.50
2017-04-24T06:08:58.575Z,8.70
2017-04-24T06:09:56.851Z,8.80
2017-04-24T06:10:55.088Z,8.90
2017-04-24T06:11:53.296Z,9.10
2017-04-24T06:12:51.627Z,9.30
2017-04-24T06:13:49.899Z,9.30
2017-04-24T06:14:48.730Z,9.50
2017-04-24T06:15:46.980Z,9.50
2017-04-24T06:16:45.315Z,9.40
2017-04-24T06:17:43.563Z,9.40
2017-04-24T06:18:41.822Z,9.50
2017-04-24T06:19:40.072Z,9.50
2017-04-24T06:20:38.344Z,9.50
2017-04-24T06:21:36.664Z,9.60
2017-04-24T06:22:34.890Z,9.70
2017-04-24T06:23:33.138Z,9.70
2017-04-24T06:24:31.415Z,9.90
2017-04-24T06:25:29.651Z,9.90
2017-04-24T06:26:27.880Z,10.00
2017-04-24T06:27:26.204Z,10.20
2017-04-24T06:28:24.442Z,10.50
2017-04-24T06:29:22.723Z,10.60
2017-04-24T06:30:21.011Z,10.70
2017-04-24T06:31:19.333Z,10.70
2017-04-24T06:32:17.631Z,10.70
2017-04-24T06:33:15.891Z,10.50
2017-04-24T06:34:14.198Z,10.60
2017-04-24T06:35:12.565Z,10.70
2017-04-24T06:36:10.947Z,10.60
2017-04-24T06:37:09.419Z,10.60
2017-04-24T06:38:07.633Z,10.80
2017-04-24T06:39:05.958Z,11.00
2017-04-24T06:40:04.183Z,11.20
2017-04-24T06:41:02.441Z,11.40
2017-04-24T06:42:00.774Z,11.60
2017-04-24T06:42:58.988Z,11.60
2017-04-24T06:43:57.188Z,11.70
2017-04-24T06:44:55.411Z,11.70
2017-04-24T06:45:53.684Z,11.90
2017-04-24T06:46:51.967Z,12.10
2017-04-24T06:47:50.202Z,12.10
2017-04-24T06:48:48.462Z,12.10
2017-04-24T06:49:46.718Z,12.20
2017-04-24T06:50:44.942Z,12.20
2017-04-24T06:51:43.335Z,12.20
2017-04-24T06:52:41.580Z,12.30
2017-04-24T06:53:39.874Z,12.50
2017-04-24T06:54:38.061Z,12.60
2017-04-24T06:55:36.387Z,12.70
2017-04-24T06:56:34.661Z,13.00
2017-04-24T06:57:32.955Z,13.00
2017-04-24T06:58:31.560Z,13.20
2017-04-24T06:59:30.082Z,13.30
2017-04-24T07:00:28.359Z,13.50
2017-04-24T07:01:26.853Z,13.60
2017-04-24T07:02:25.147Z,13.80
2017-04-24T07:03:23.722Z,14.00
2017-04-24T07:04:21.961Z,14.10
2017-04-24T07:05:20.204Z,14.00
2017-04-24T07:06:18.495Z,14.00
2017-04-24T07:07:16.811Z,13.70
2017-04-24T07:08:15.038Z,13.80
2017-04-24T07:09:13.278Z,14.00
2017-04-24T07:10:11.547Z,14.10
2017-04-24T07:11:09.790Z,14.10
2017-04-24T07:12:08.092Z,14.20
2017-04-24T07:13:06.431Z,14.10
2017-04-24T07:14:04.690Z,13.90
2017-04-24T07:15:03.078Z,13.70
2017-04-24T07:16:01.409Z,13.90
2017-04-24T07:16:59.631Z,14.20
2017-04-24T07:17:58.014Z,14.50
2017-04-24T07:18:56.321Z,14.60
2017-04-24T07:19:54.756Z,14.70
2017-04-24T07:20:53.115Z,14.50
2017-04-24T07:21:51.594Z,14.60
2017-04-24T07:22:50.045Z,14.50
2017-04-24T07:23:48.331Z,14.70
2017-04-24T07:24:46.694Z,14.80
2017-04-24T07:25:45.012Z,14.90
2017-04-24T07:26:43.372Z,14.90
2017-04-24T07:27:41.700Z,15.10
2017-04-24T07:28:39.951Z,15.30
2017-04-24T07:29:38.250Z,15.50
2017-04-24T07:30:36.507Z,15.70
2017-04-24T07:31:34.828Z,15.90
2017-04-24T07:32:33.139Z,15.90
2017-04-24T07:33:31.406Z,16.10
2017-04-24T07:34:29.628Z,16.30
2017-04-24T07:35:27.951Z,16.40
2017-04-24T07:36:26.206Z,16.20
2017-04-24T07:37:24.498Z,16.10
2017-04-24T07:38:22.902Z,16.50
2017-04-24T07:39:21.143Z,16.90
2017-04-24T07:40:19.414Z,17.20
2017-04-24T07:41:17.738Z,17.00
2017-04-24T07:42:16.023Z,16.80
2017-04-24T07:43:14.302Z,16.80
2017-04-24T07:44:12.549Z,16.90
2017-04-24T07:45:10.810Z,17.00
2017-04-24T07:46:09.087Z,17.20
2017-04-24T07:47:07.329Z,17.50
2017-04-24T07:48:05.578Z,17.40
2017-04-24T07:49:03.819Z,17.50
2017-04-24T07:50:02.030Z,17.40
2017-04-24T07:51:00.241Z,17.40
2017-04-24T07:51:58.458Z,17.70
2017-04-24T07:52:56.662Z,17.70
2017-04-24T07:53:55.017Z,17.60
2017-04-24T07:54:53.269Z,17.70
2017-04-24T07:55:51.554Z,18.00
2017-04-24T07:56:49.792Z,18.10
2017-04-24T07:57:48.066Z,18.00
2017-04-24T07:58:46.372Z,17.70
2017-04-24T07:59:44.622Z,17.90
2017-04-24T08:00:42.850Z,17.50
2017-04-24T08:01:41.103Z,17.30
2017-04-24T08:02:39.320Z,17.50
2017-04-24T08:03:37.649Z,17.50
2017-04-24T08:04:35.913Z,17.70
2017-04-24T08:05:34.167Z,17.70
2017-04-24T08:06:32.403Z,17.80
2017-04-24T08:07:30.675Z,17.80
2017-04-24T08:08:28.953Z,17.90
2017-04-24T08:09:27.188Z,17.90
2017-04-24T08:10:25.442Z,17.80
2017-04-24T08:11:23.643Z,17.60
2017-04-24T08:12:21.886Z,17.70
2017-04-24T08:13:20.151Z,18.00
2017-04-24T08:14:18.424Z,18.10
2017-04-24T08:15:16.741Z,18.30
2017-04-24T08:16:14.992Z,18.50
2017-04-24T08:17:13.784Z,18.40
2017-04-24T08:18:11.995Z,18.50
2017-04-24T08:19:10.321Z,18.30
2017-04-24T08:20:08.566Z,18.30
2017-04-24T08:21:06.920Z,18.40
2017-04-24T08:22:05.172Z,18.50
2017-04-24T08:23:03.536Z,18.60
2017-04-24T08:24:01.821Z,18.70
2017-04-24T08:25:00.113Z,19.00
2017-04-24T08:25:58.366Z,19.10
2017-04-24T08:26:56.674Z,19.20
2017-04-24T08:27:54.876Z,19.20
2017-04-24T08:28:53.164Z,19.00
2017-04-24T08:29:51.444Z,18.30
2017-04-24T08:30:49.763Z,18.30
2017-04-24T08:31:48.069Z,18.30
2017-04-24T08:32:46.343Z,18.40
2017-04-24T08:33:44.593Z,18.30
2017-04-24T08:34:42.812Z,18.60
2017-04-24T08:35:41.044Z,18.80
2017-04-24T08:36:39.349Z,19.10
2017-04-24T08:37:37.656Z,19.10
2017-04-24T08:38:35.895Z,19.10
2017-04-24T08:39:34.156Z,19.50
2017-04-24T08:40:32.461Z,19.80
2017-04-24T08:41:30.720Z,19.50
2017-04-24T08:42:29.444Z,19.40
2017-04-24T08:43:27.646Z,19.40
2017-04-24T08:44:25.823Z,19.30
2017-04-24T08:45:24.035Z,19.20
2017-04-24T08:46:22.390Z,19.30
2017-04-24T08:47:20.692Z,19.30
2017-04-24T08:48:18.990Z,19.20
2017-04-24T08:49:17.235Z,18.60
2017-04-24T08:50:15.534Z,18.40
2017-04-24T08:51:13.871Z,18.50
2017-04-24T08:52:12.133Z,18.80
2017-04-24T08:53:10.374Z,19.30
2017-04-24T08:54:08.627Z,19.60
2017-04-24T08:55:06.846Z,19.70
2017-04-24T08:56:05.119Z,19.50
2017-04-24T08:57:03.487Z,19.70
2017-04-24T08:58:01.702Z,19.70
2017-04-24T08:58:59.989Z,19.80
2017-04-24T08:59:58.319Z,20.00
2017-04-24T09:00:56.683Z,19.90
2017-04-24T09:01:54.910Z,19.50
2017-04-24T09:02:53.175Z,19.40
2017-04-24T09:03:51.503Z,19.80
2017-04-24T09:04:49.761Z,19.90
2017-04-24T09:05:48.036Z,19.90
2017-04-24T09:06:46.326Z,20.00
2017-04-24T09:07:44.582Z,20.20
2017-04-24T09:08:43.579Z,20.20
2017-04-24T09:09:41.790Z,20.00
2017-04-24T09:10:40.040Z,19.40
2017-04-24T09:11:38.340Z,19.30
2017-04-24T09:12:36.613Z,19.30
2017-04-24T09:13:34.841Z,19.30
2017-04-24T09:14:33.205Z,19.40
2017-04-24T09:15:31.491Z,19.50
2017-04-24T09:16:29.780Z,19.80
2017-04-24T09:17:28.052Z,19.80
2017-04-24T09:18:26.292Z,19.90
2017-04-24T09:19:24.545Z,20.20
2017-04-24T09:20:22.893Z,20.30
2017-04-24T09:21:21.521Z,20.20
2017-04-24T09:22:19.810Z,19.40
2017-04-24T09:23:18.079Z,19.50
2017-04-24T09:24:16.331Z,19.80
2017-04-24T09:25:14.546Z,20.00
2017-04-24T09:26:12.875Z,20.20
2017-04-24T09:27:11.160Z,20.20
2017-04-24T09:28:09.485Z,20.30
2017-04-24T09:29:07.798Z,19.70
2017-04-24T09:30:09.392Z,19.80
2017-04-24T09:31:07.718Z,20.10
2017-04-24T09:32:06.020Z,20.90
2017-04-24T09:33:05.322Z,21.40
2017-04-24T09:34:03.606Z,21.60
2017-04-24T09:35:01.933Z,21.80
2017-04-24T09:36:00.192Z,22.10
2017-04-24T09:36:58.450Z,22.30
2017-04-24T09:37:56.647Z,22.40
2017-04-24T09:38:54.954Z,22.30
2017-04-24T09:39:53.236Z,22.50
2017-04-24T09:40:51.769Z,22.70
2017-04-24T09:41:50.025Z,23.00
2017-04-24T09:42:48.254Z,23.40
2017-04-24T09:43:46.532Z,24.10
2017-04-24T09:44:45.293Z,24.10
2017-04-24T09:45:43.809Z,22.70
2017-04-24T09:46:42.122Z,22.30
2017-04-24T09:47:40.408Z,22.60
2017-04-24T09:48:38.719Z,23.10
2017-04-24T09:49:36.955Z,23.40
2017-04-24T09:50:35.253Z,23.90
2017-04-24T09:51:33.547Z,24.00
2017-04-24T09:52:31.949Z,24.20
2017-04-24T09:53:30.310Z,24.70
2017-04-24T09:54:28.557Z,24.70
2017-04-24T09:55:26.854Z,24.50
2017-04-24T09:56:25.232Z,24.70
2017-04-24T09:57:23.522Z,24.70
2017-04-24T09:58:21.935Z,24.70
2017-04-24T09:59:20.264Z,24.90
2017-04-24T10:00:18.576Z,25.10
2017-04-24T10:01:16.849Z,25.60
2017-04-24T10:02:15.779Z,25.70
2017-04-24T10:03:14.079Z,25.80
2017-04-24T10:04:12.385Z,26.10
2017-04-24T10:05:10.653Z,25.50
2017-04-24T10:06:08.873Z,25.00
2017-04-24T10:07:07.162Z,25.40
2017-04-24T10:08:05.392Z,25.40
2017-04-24T10:09:03.834Z,26.00
2017-04-24T10:10:02.074Z,25.60
2017-04-24T10:11:00.330Z,25.70
2017-04-24T10:11:58.711Z,25.00
2017-04-24T10:12:56.964Z,24.60
2017-04-24T10:13:55.182Z,25.00
2017-04-24T10:14:53.419Z,25.40
2017-04-24T10:15:51.697Z,25.60
2017-04-24T10:16:49.920Z,25.70
2017-04-24T10:17:48.184Z,25.50
2017-04-24T10:18:46.429Z,25.20
2017-04-24T10:19:44.682Z,25.00
2017-04-24T10:20:42.939Z,25.10
2017-04-24T10:21:41.261Z,24.80
2017-04-24T10:22:39.547Z,24.70
2017-04-24T10:23:37.880Z,24.30
2017-04-24T10:24:36.134Z,24.30
2017-04-24T10:25:34.378Z,24.80
2017-04-24T10:26:32.748Z,24.80
2017-04-24T10:27:31.031Z,25.00
2017-04-24T10:28:29.327Z,25.30
2017-04-24T10:29:27.588Z,25.30
2017-04-24T10:30:25.835Z,25.00
2017-04-24T10:31:24.105Z,25.40
2017-04-24T10:32:22.353Z,25.50
2017-04-24T10:33:20.638Z,25.10
2017-04-24T10:34:18.858Z,25.20
2017-04-24T10:35:17.118Z,24.90
2017-04-24T10:36:15.386Z,24.90
2017-04-24T10:37:13.652Z,25.40
2017-04-24T10:38:11.878Z,25.40
2017-04-24T10:39:10.194Z,25.60
2017-04-24T10:40:08.427Z,25.40
2017-04-24T10:41:06.752Z,25.50
2017-04-24T10:42:05.052Z,25.30
2017-04-24T10:43:03.275Z,25.00
2017-04-24T10:44:01.809Z,25.40
2017-04-24T10:45:00.064Z,25.50
2017-04-24T10:45:58.351Z,25.40
2017-04-24T10:46:56.938Z,25.30
2017-04-24T10:47:55.199Z,25.50
2017-04-24T10:48:53.454Z,25.70
2017-04-24T10:49:51.766Z,26.30
2017-04-24T10:50:50.148Z,26.70
2017-04-24T10:51:48.448Z,26.60
2017-04-24T10:52:46.747Z,26.80
2017-04-24T10:53:45.116Z,26.70
2017-04-24T10:54:43.330Z,26.70
2017-04-24T10:55:41.639Z,26.80
2017-04-24T10:56:39.961Z,26.10
2017-04-24T10:57:38.221Z,26.10
2017-04-24T10:58:37.187Z,26.40
2017-04-24T10:59:35.444Z,26.40
2017-04-24T11:00:33.806Z,27.00
2017-04-24T11:01:32.067Z,27.20
2017-04-24T11:02:30.410Z,27.10
2017-04-24T11:03:28.667Z,27.20
2017-04-24T11:04:26.984Z,27.50
2017-04-24T11:05:25.348Z,27.50
2017-04-24T11:06:23.590Z,27.50
2017-04-24T11:07:21.816Z,28.00
2017-04-24T11:08:20.331Z,27.60
2017-04-24T11:09:18.622Z,27.00
2017-04-24T11:10:16.891Z,27.20
2017-04-24T11:11:15.181Z,27.30
2017-04-24T11:12:13.441Z,27.10
2017-04-24T11:13:11.787Z,27.40
2017-04-24T11:14:10.061Z,27.20
2017-04-24T11:15:08.363Z,26.60
2017-04-24T11:16:06.680Z,26.60
2017-04-24T11:17:05.694Z,26.30
2017-04-24T11:18:03.927Z,26.20
2017-04-24T11:19:02.151Z,26.50
2017-04-24T11:20:00.386Z,26.80
2017-04-24T11:20:58.624Z,26.90
2017-04-24T11:21:56.892Z,27.50
2017-04-24T11:22:55.151Z,27.80
2017-04-24T11:23:53.365Z,28.30
2017-04-24T11:24:51.592Z,27.00
2017-04-24T11:25:49.837Z,26.70
2017-04-24T11:26:48.069Z,26.90
2017-04-24T11:27:46.440Z,27.30
2017-04-24T11:28:44.690Z,27.50
2017-04-24T11:29:42.978Z,28.10
2017-04-24T11:30:41.295Z,28.60
2017-04-24T11:31:39.599Z,28.70
2017-04-24T11:32:37.963Z,27.90
2017-04-24T11:33:36.227Z,27.90
2017-04-24T11:34:34.506Z,28.00
2017-04-24T11:35:32.785Z,27.80
2017-04-24T11:36:31.135Z,28.00
2017-04-24T11:37:29.478Z,28.00
2017-04-24T11:38:27.747Z,27.70
2017-04-24T11:39:25.992Z,27.90
2017-04-24T11:40:24.305Z,28.30
2017-04-24T11:41:22.529Z,28.30
2017-04-24T11:42:20.734Z,28.20
2017-04-24T11:43:19.072Z,28.00
2017-04-24T11:44:17.385Z,27.70
2017-04-24T11:45:15.805Z,27.70
2017-04-24T11:46:14.055Z,27.90
2017-04-24T11:47:12.299Z,27.70
2017-04-24T11:48:10.631Z,27.90
2017-04-24T11:49:08.949Z,28.20
2017-04-24T11:50:07.361Z,28.50
2017-04-24T11:51:05.712Z,27.70
2017-04-24T11:52:04.070Z,27.40
2017-04-24T11:53:02.364Z,27.20
2017-04-24T11:54:00.631Z,27.00
2017-04-24T11:54:58.901Z,26.80
2017-04-24T11:55:57.150Z,26.50
2017-04-24T11:56:55.383Z,26.20
2017-04-24T11:57:53.642Z,26.50
2017-04-24T11:58:51.988Z,26.60
2017-04-24T11:59:50.321Z,26.60
2017-04-24T12:00:48.573Z,27.00
2017-04-24T12:01:47.025Z,27.20
2017-04-24T12:02:45.379Z,26.40
2017-04-24T12:03:43.680Z,25.80
2017-04-24T12:04:41.978Z,26.10
2017-04-24T12:05:40.220Z,26.70
2017-04-24T12:06:38.475Z,26.30
2017-04-24T12:07:36.717Z,26.50
2017-04-24T12:08:35.049Z,26.20
2017-04-24T12:09:33.269Z,26.20
2017-04-24T12:10:31.500Z,26.60
2017-04-24T12:11:30.147Z,26.40
2017-04-24T12:12:28.399Z,26.40
2017-04-24T12:13:26.650Z,26.60
2017-04-24T12:14:25.716Z,26.60
2017-04-24T12:15:24.697Z,26.70
2017-04-24T12:16:22.989Z,27.10
2017-04-24T12:17:21.285Z,26.80
2017-04-24T12:18:19.539Z,26.80
2017-04-24T12:19:17.782Z,27.00
2017-04-24T12:20:16.068Z,27.10
2017-04-24T12:21:14.311Z,27.00
2017-04-24T12:22:12.550Z,27.20
2017-04-24T12:23:10.799Z,27.20
2017-04-24T12:24:09.092Z,27.10
2017-04-24T12:25:07.483Z,27.30
2017-04-24T12:26:05.813Z,27.30
2017-04-24T12:27:04.156Z,27.00
2017-04-24T12:28:02.726Z,26.80
2017-04-24T12:29:01.045Z,26.40
2017-04-24T12:29:59.317Z,25.70
2017-04-24T12:30:57.587Z,26.40
2017-04-24T12:32:00.457Z,25.90
2017-04-24T12:32:58.676Z,25.90
2017-04-24T12:33:57.114Z,25.90
2017-04-24T12:34:55.565Z,26.10
2017-04-24T12:35:53.804Z,26.20
2017-04-24T12:36:52.072Z,26.30
2017-04-24T12:37:50.604Z,26.40
2017-04-24T12:38:49.126Z,25.80
2017-04-24T12:39:47.564Z,25.40
2017-04-24T12:40:56.753Z,25.50
2017-04-24T12:41:55.430Z,25.40
2017-04-24T12:42:53.942Z,25.60
2017-04-24T12:43:52.419Z,26.00